Time;durP1;ratioP1;P1;durP2;ratioP2;P2;SDS_P1;SDS_P2;PMS_P1;PMS_P2;Temp;Humidity;BMP_temperature;BMP_pressure;BME280_temperature;BME280_humidity;BME280_pressure;Samples;Min_cycle;Max_cycle;Signal;HPM_P1;HPM_P2
2023/06/18 00:01:59;;;;;;;10.98;9.43;;;23.30;70.90;;;;;;6271424;22;20006;-71
2023/06/18 00:04:25;;;;;;;12.35;10.77;;;23.30;71.20;;;;;;6271092;22;20329;-71
2023/06/18 00:06:52;;;;;;;11.45;8.93;;;23.30;71.30;;;;;;6272180;22;20102;-72
2023/06/18 00:09:17;;;;;;;13.82;8.70;;;23.30;71.30;;;;;;6244980;22;20012;-72
2023/06/18 00:11:43;;;;;;;11.88;8.95;;;23.20;71.20;;;;;;6272209;22;20285;-71
2023/06/18 00:14:08;;;;;;;9.98;8.38;;;23.10;71.20;;;;;;6271486;22;20441;-72
2023/06/18 00:16:34;;;;;;;9.38;8.35;;;23.10;71.40;;;;;;6272624;22;20002;-72
2023/06/18 00:19:00;;;;;;;10.45;9.25;;;23.10;71.40;;;;;;6271993;22;20000;-72
2023/06/18 00:21:25;;;;;;;9.65;8.73;;;23.10;71.50;;;;;;6271826;22;20019;-72
2023/06/18 00:23:51;;;;;;;10.80;9.68;;;23.00;71.40;;;;;;6272645;22;20028;-73
2023/06/18 00:26:16;;;;;;;9.85;8.85;;;23.10;71.50;;;;;;6271888;22;20304;-73
2023/06/18 00:28:42;;;;;;;9.68;8.63;;;23.00;71.50;;;;;;6272005;22;19996;-73
2023/06/18 00:31:11;;;;;;;9.55;8.68;;;23.00;71.50;;;;;;6272208;22;20025;-73
2023/06/18 00:33:37;;;;;;;8.15;7.35;;;23.00;71.40;;;;;;6272539;22;20003;-73
2023/06/18 00:36:04;;;;;;;11.32;8.45;;;23.00;71.30;;;;;;6272152;22;20004;-73
2023/06/18 00:38:32;;;;;;;10.13;8.15;;;23.00;71.30;;;;;;6272214;22;20007;-73
2023/06/18 00:40:58;;;;;;;10.02;7.95;;;23.00;71.30;;;;;;6271932;22;20027;-73
2023/06/18 00:43:27;;;;;;;10.20;8.52;;;22.90;71.20;;;;;;6244230;22;20000;-72
2023/06/18 00:45:59;;;;;;;13.90;10.15;;;22.90;71.40;;;;;;6272004;22;20000;-73
2023/06/18 00:48:25;;;;;;;10.38;7.90;;;22.90;71.30;;;;;;6272157;22;20425;-73
2023/06/18 00:50:53;;;;;;;12.02;8.10;;;22.90;71.30;;;;;;6272099;22;20428;-73
2023/06/18 00:53:20;;;;;;;10.68;7.88;;;22.90;71.40;;;;;;6271845;22;20027;-73
2023/06/18 00:55:48;;;;;;;10.18;8.32;;;22.80;71.40;;;;;;6244583;22;20087;-73
2023/06/18 00:58:15;;;;;;;9.95;8.95;;;22.80;71.30;;;;;;6244315;22;20014;-72
2023/06/18 01:00:41;;;;;;;10.60;8.13;;;22.80;71.20;;;;;;6271975;22;20437;-73
2023/06/18 01:03:16;;;;;;;9.80;8.35;;;22.70;71.20;;;;;;6271926;22;20000;-73
2023/06/18 01:05:45;;;;;;;9.07;8.02;;;22.70;71.40;;;;;;6245033;22;20008;-73
2023/06/18 01:08:12;;;;;;;9.52;8.65;;;22.70;71.50;;;;;;6244521;22;20468;-72
2023/06/18 01:10:40;;;;;;;11.43;8.55;;;22.70;71.40;;;;;;6270791;22;20019;-73
2023/06/18 01:13:08;;;;;;;9.55;7.68;;;22.60;71.50;;;;;;6270116;22;19996;-73
2023/06/18 01:15:33;;;;;;;8.35;7.15;;;22.50;71.50;;;;;;6272048;22;20106;-73
2023/06/18 01:18:00;;;;;;;9.80;7.90;;;22.50;71.40;;;;;;6271384;22;20117;-73
2023/06/18 01:20:27;;;;;;;7.90;7.20;;;22.40;71.60;;;;;;6273544;22;20390;-73
2023/06/18 01:23:06;;;;;;;12.75;8.70;;;22.40;71.60;;;;;;6273872;22;20000;-73
2023/06/18 01:25:33;;;;;;;9.00;7.78;;;22.40;71.70;;;;;;6273299;22;19996;-73
2023/06/18 01:28:01;;;;;;;11.43;9.25;;;22.30;71.80;;;;;;6273991;22;20067;-73
2023/06/18 01:30:27;;;;;;;9.63;8.05;;;22.30;72.10;;;;;;6273791;22;20004;-72
2023/06/18 01:32:56;;;;;;;9.02;7.88;;;22.10;72.00;;;;;;6246857;22;20602;-72
2023/06/18 01:35:22;;;;;;;9.48;8.45;;;22.20;72.10;;;;;;6273598;22;19995;-73
2023/06/18 01:38:11;;;;;;;9.93;7.78;;;22.10;72.10;;;;;;6273830;22;20067;-72
2023/06/18 01:40:57;;;;;;;9.48;7.20;;;22.10;72.20;;;;;;6272864;22;20003;-73
2023/06/18 01:43:36;;;;;;;8.43;7.05;;;22.10;72.30;;;;;;6272622;22;20035;-73
2023/06/18 01:46:07;;;;;;;7.82;6.97;;;22.10;72.30;;;;;;6273337;22;20002;-72
2023/06/18 01:48:41;;;;;;;9.13;7.45;;;22.00;72.30;;;;;;6273821;22;20031;-73
2023/06/18 01:51:06;;;;;;;;;;;22.00;72.40;;;;;;6274079;22;20000;-73
2023/06/18 01:53:37;;;;;;;10.75;7.93;;;21.90;72.40;;;;;;6273714;22;19953;-73
2023/06/18 01:56:03;;;;;;;9.85;8.40;;;21.90;72.50;;;;;;6273565;22;20010;-73
2023/06/18 01:58:33;;;;;;;9.77;8.25;;;21.90;72.70;;;;;;6273513;22;20373;-73
2023/06/18 02:00:59;;;;;;;9.63;7.82;;;21.90;72.80;;;;;;6273029;22;20057;-72
2023/06/18 02:03:25;;;;;;;9.95;7.63;;;21.80;72.90;;;;;;6273655;22;20074;-73
2023/06/18 02:05:51;;;;;;;12.85;8.50;;;21.80;72.90;;;;;;6273582;22;20049;-73
2023/06/18 02:08:17;;;;;;;9.15;8.25;;;21.70;73.00;;;;;;6272378;22;19996;-72
2023/06/18 02:10:43;;;;;;;9.82;8.55;;;21.60;73.10;;;;;;6273602;22;20401;-73
2023/06/18 02:13:09;;;;;;;10.52;7.70;;;21.60;73.30;;;;;;6273327;22;20030;-72
2023/06/18 02:15:35;;;;;;;11.63;8.77;;;21.50;73.40;;;;;;6273281;22;20022;-72
2023/06/18 02:18:00;;;;;;;8.98;8.07;;;21.60;73.50;;;;;;6273025;22;20707;-73
2023/06/18 02:20:26;;;;;;;10.10;7.45;;;21.50;73.70;;;;;;6246109;22;20016;-72
2023/06/18 02:22:52;;;;;;;9.95;7.85;;;21.50;73.80;;;;;;6273086;22;19996;-73
2023/06/18 02:25:19;;;;;;;7.93;7.22;;;21.40;73.90;;;;;;6273174;22;20071;-72
2023/06/18 02:27:55;;;;;;;9.93;8.55;;;21.40;74.10;;;;;;6273553;22;20370;-73
2023/06/18 02:30:21;;;;;;;12.05;8.15;;;21.30;74.90;;;;;;6273111;22;20421;-73
2023/06/18 02:32:48;;;;;;;11.95;8.23;;;21.30;74.20;;;;;;6273616;22;20053;-73
2023/06/18 02:35:15;;;;;;;10.27;9.15;;;21.20;74.40;;;;;;6273007;22;20007;-73
2023/06/18 02:37:41;;;;;;;9.20;8.35;;;21.20;74.60;;;;;;6272493;22;19999;-72
2023/06/18 02:40:07;;;;;;;10.52;9.55;;;21.20;74.80;;;;;;6272994;22;20015;-73
2023/06/18 02:42:33;;;;;;;9.43;8.25;;;21.10;74.90;;;;;;6273003;22;20006;-72
2023/06/18 02:44:59;;;;;;;10.38;8.15;;;21.10;75.00;;;;;;6272949;22;20074;-72
2023/06/18 02:47:25;;;;;;;9.43;8.40;;;21.00;75.10;;;;;;6273045;22;20000;-72
2023/06/18 02:49:50;;;;;;;9.77;8.80;;;21.00;75.40;;;;;;6273579;22;20400;-72
2023/06/18 02:52:16;;;;;;;11.48;9.35;;;21.00;75.60;;;;;;6245367;22;20007;-72
2023/06/18 02:54:43;;;;;;;11.13;8.75;;;20.90;75.80;;;;;;6271292;22;20014;-73
2023/06/18 02:57:09;;;;;;;11.70;10.32;;;20.90;75.90;;;;;;6245377;22;20065;-73
2023/06/18 02:59:34;;;;;;;12.25;11.00;;;20.90;76.00;;;;;;6245293;22;20445;-73
2023/06/18 03:02:02;;;;;;;10.93;8.63;;;20.90;76.30;;;;;;6272604;22;20418;-72
2023/06/18 03:04:28;;;;;;;10.68;9.27;;;20.80;76.30;;;;;;6245833;22;20011;-73
2023/06/18 03:06:57;;;;;;;10.63;9.50;;;20.80;76.40;;;;;;6272153;22;20478;-72
2023/06/18 03:09:22;;;;;;;10.45;9.40;;;20.80;76.40;;;;;;6273069;22;20152;-72
2023/06/18 03:11:48;;;;;;;12.10;10.50;;;20.70;76.60;;;;;;6272697;22;19998;-73
2023/06/18 03:14:13;;;;;;;8.73;7.93;;;20.70;76.70;;;;;;6272589;22;20078;-73
2023/06/18 03:16:39;;;;;;;9.73;8.82;;;20.70;76.60;;;;;;6272573;22;20000;-73
2023/06/18 03:19:04;;;;;;;13.35;9.75;;;20.70;76.70;;;;;;6272570;22;20000;-73
2023/06/18 03:21:30;;;;;;;11.05;9.88;;;20.70;76.80;;;;;;6271833;22;20050;-73
2023/06/18 03:23:55;;;;;;;10.50;9.32;;;20.70;76.80;;;;;;6272551;22;20303;-72
2023/06/18 03:26:21;;;;;;;10.48;9.02;;;20.70;76.90;;;;;;6272647;22;20002;-73
2023/06/18 03:28:47;;;;;;;10.70;9.32;;;20.60;77.10;;;;;;6272460;22;20003;-73
2023/06/18 03:31:13;;;;;;;10.95;9.70;;;20.60;77.10;;;;;;6272368;22;20011;-72
2023/06/18 03:33:39;;;;;;;10.90;9.55;;;20.60;77.50;;;;;;6272360;22;20008;-73
2023/06/18 03:36:05;;;;;;;13.68;10.45;;;20.50;78.10;;;;;;6271613;22;20006;-72
2023/06/18 03:38:31;;;;;;;10.75;9.63;;;20.50;77.60;;;;;;6245520;22;20030;-72
2023/06/18 03:40:57;;;;;;;10.20;9.20;;;20.50;77.80;;;;;;6271527;22;20345;-73
2023/06/18 03:43:22;;;;;;;11.88;9.82;;;20.50;77.80;;;;;;6272507;22;20050;-72
2023/06/18 03:45:48;;;;;;;12.38;11.07;;;20.50;78.00;;;;;;6272253;22;19999;-72
2023/06/18 03:48:14;;;;;;;13.40;9.57;;;20.40;78.30;;;;;;6272550;22;20000;-73
2023/06/18 03:50:40;;;;;;;11.00;9.15;;;20.50;78.40;;;;;;6244726;22;20083;-73
2023/06/18 03:53:06;;;;;;;14.63;10.63;;;20.50;78.30;;;;;;6272034;22;20003;-72
2023/06/18 03:55:31;;;;;;;14.93;11.82;;;20.50;78.50;;;;;;6270685;22;20414;-73
2023/06/18 03:57:57;;;;;;;12.25;11.05;;;20.50;79.00;;;;;;6271040;22;20000;-73
2023/06/18 04:00:23;;;;;;;10.82;9.55;;;20.50;79.00;;;;;;6272430;22;20026;-73
2023/06/18 04:02:48;;;;;;;12.20;10.90;;;20.50;78.80;;;;;;6245113;22;20003;-73
2023/06/18 04:05:14;;;;;;;10.60;9.57;;;20.50;78.80;;;;;;6271840;22;20388;-72
2023/06/18 04:07:40;;;;;;;13.55;10.68;;;20.50;78.80;;;;;;6272593;22;20004;-73
2023/06/18 04:10:06;;;;;;;15.50;10.65;;;20.50;78.80;;;;;;6271975;22;20795;-73
2023/06/18 04:12:32;;;;;;;12.35;10.18;;;20.60;78.90;;;;;;6272509;22;20006;-73
2023/06/18 04:14:57;;;;;;;12.45;11.15;;;20.50;78.90;;;;;;6271906;22;20007;-72
2023/06/18 04:17:25;;;;;;;12.18;10.98;;;20.60;78.90;;;;;;6245471;22;20429;-73
2023/06/18 04:19:50;;;;;;;11.15;10.10;;;20.60;78.80;;;;;;6271745;22;20035;-73
2023/06/18 04:22:16;;;;;;;13.38;10.85;;;20.70;78.90;;;;;;6271880;22;20003;-72
2023/06/18 04:24:42;;;;;;;14.20;13.02;;;20.60;78.80;;;;;;6272569;22;20000;-73
2023/06/18 04:27:07;;;;;;;12.70;10.80;;;20.70;78.90;;;;;;6271667;22;20000;-73
2023/06/18 04:29:33;;;;;;;14.07;11.70;;;20.80;79.00;;;;;;6272348;22;20043;-73
2023/06/18 04:31:58;;;;;;;12.38;11.18;;;20.80;79.10;;;;;;6271517;22;20054;-73
2023/06/18 04:34:24;;;;;;;13.57;12.27;;;20.80;79.00;;;;;;6244749;22;20003;-73
2023/06/18 04:36:49;;;;;;;16.58;13.30;;;20.90;79.10;;;;;;6272295;22;20464;-73
2023/06/18 04:39:15;;;;;;;11.88;10.63;;;20.90;79.10;;;;;;6244690;22;20042;-73
2023/06/18 04:41:40;;;;;;;13.52;10.77;;;20.90;78.90;;;;;;6272337;22;20023;-73
2023/06/18 04:44:06;;;;;;;13.63;11.57;;;21.00;78.70;;;;;;6244754;22;20421;-72
2023/06/18 04:46:33;;;;;;;14.90;12.27;;;21.10;78.60;;;;;;6272452;22;20000;-73
2023/06/18 04:48:59;;;;;;;14.65;11.88;;;21.10;78.50;;;;;;6271324;22;20076;-73
2023/06/18 04:51:25;;;;;;;13.82;12.32;;;21.10;78.50;;;;;;6272312;22;20431;-73
2023/06/18 04:53:51;;;;;;;13.30;12.00;;;21.10;78.40;;;;;;6246650;22;20003;-73
2023/06/18 04:56:16;;;;;;;12.88;11.52;;;21.20;78.40;;;;;;6273610;22;20023;-72
2023/06/18 04:58:42;;;;;;;12.98;11.65;;;21.20;78.30;;;;;;6274516;22;20049;-73
2023/06/18 05:01:08;;;;;;;13.98;12.52;;;21.30;78.10;;;;;;6273114;22;20018;-73
2023/06/18 05:03:34;;;;;;;14.35;12.95;;;21.20;78.00;;;;;;6273863;22;20000;-73
2023/06/18 05:05:59;;;;;;;13.68;12.23;;;21.40;77.80;;;;;;6273818;22;20059;-73
2023/06/18 05:08:25;;;;;;;14.13;12.48;;;21.40;77.60;;;;;;6246737;22;20817;-72
2023/06/18 05:10:50;;;;;;;16.30;13.68;;;21.40;77.60;;;;;;6274209;22;20004;-73
2023/06/18 05:13:16;;;;;;;14.10;12.57;;;21.50;77.60;;;;;;6273473;22;20002;-73
2023/06/18 05:15:41;;;;;;;14.35;12.93;;;21.50;77.50;;;;;;6274186;22;20000;-73
2023/06/18 05:18:07;;;;;;;18.05;13.27;;;21.50;77.60;;;;;;6272920;22;20465;-72
2023/06/18 05:20:32;;;;;;;15.40;12.65;;;21.50;77.60;;;;;;6274212;22;20030;-73
2023/06/18 05:22:58;;;;;;;16.08;14.35;;;21.50;77.70;;;;;;6273818;22;20079;-73
2023/06/18 05:25:23;;;;;;;14.05;12.77;;;21.50;77.60;;;;;;6273663;22;20004;-73
2023/06/18 05:27:49;;;;;;;14.25;12.75;;;21.50;77.50;;;;;;6274366;22;19996;-72
2023/06/18 05:30:15;;;;;;;12.07;10.88;;;21.40;77.50;;;;;;6273338;22;20010;-73
2023/06/18 05:32:40;;;;;;;16.35;14.20;;;21.40;77.30;;;;;;6273459;22;20007;-73
2023/06/18 05:35:06;;;;;;;18.25;14.02;;;21.50;77.50;;;;;;6273621;22;20049;-72
2023/06/18 05:37:32;;;;;;;15.68;14.15;;;21.50;77.60;;;;;;6273603;22;20349;-73
2023/06/18 05:39:57;;;;;;;16.55;14.20;;;21.50;77.80;;;;;;6273349;22;20401;-72
2023/06/18 05:42:23;;;;;;;15.70;14.15;;;21.50;77.60;;;;;;6273599;22;20384;-72
2023/06/18 05:44:48;;;;;;;15.15;13.70;;;21.50;77.50;;;;;;6273957;22;20008;-73
2023/06/18 05:47:14;;;;;;;15.35;13.75;;;21.50;77.50;;;;;;6245563;22;20003;-72
2023/06/18 05:49:39;;;;;;;15.40;13.93;;;21.60;77.50;;;;;;6246753;22;20073;-72
2023/06/18 05:52:06;;;;;;;16.08;14.57;;;21.50;77.50;;;;;;6273417;22;20053;-72
2023/06/18 05:54:31;;;;;;;14.85;13.48;;;21.70;77.60;;;;;;6246235;22;20003;-73
2023/06/18 05:56:57;;;;;;;16.40;14.13;;;21.70;77.50;;;;;;6273542;22;20321;-72
2023/06/18 05:59:22;;;;;;;16.70;14.90;;;21.80;77.40;;;;;;6272964;22;20039;-73
2023/06/18 06:01:48;;;;;;;16.23;14.63;;;21.90;77.90;;;;;;6273327;22;20588;-73
2023/06/18 06:04:13;;;;;;;15.15;13.57;;;22.00;77.20;;;;;;6272976;22;20299;-73
2023/06/18 06:06:39;;;;;;;15.15;13.50;;;22.20;77.00;;;;;;6273413;22;20002;-73
2023/06/18 06:09:05;;;;;;;16.17;14.43;;;22.30;76.90;;;;;;6273509;22;19996;-72
2023/06/18 06:11:36;;;;;;;15.40;12.55;;;22.40;76.90;;;;;;6273853;22;20000;-73
2023/06/18 06:14:02;;;;;;;18.15;15.38;;;22.40;76.50;;;;;;6274258;22;19996;-73
2023/06/18 06:16:27;;;;;;;15.40;13.07;;;22.50;76.00;;;;;;6272836;22;20191;-74
2023/06/18 06:18:53;;;;;;;16.02;14.35;;;22.50;75.90;;;;;;6273585;22;20487;-73
2023/06/18 06:21:19;;;;;;;14.77;13.43;;;22.60;75.90;;;;;;6273118;22;20338;-72
2023/06/18 06:23:45;;;;;;;13.95;12.43;;;22.60;75.70;;;;;;6246155;22;20436;-72
2023/06/18 06:26:11;;;;;;;15.88;14.27;;;22.70;75.30;;;;;;6245954;22;20003;-73
2023/06/18 06:28:37;;;;;;;15.75;14.13;;;22.80;75.30;;;;;;6246015;22;20039;-73
2023/06/18 06:31:02;;;;;;;17.08;14.55;;;22.80;75.10;;;;;;6271909;22;20010;-73
2023/06/18 06:33:29;;;;;;;17.10;15.27;;;22.90;74.90;;;;;;6273012;22;19996;-73
2023/06/18 06:35:55;;;;;;;17.65;15.77;;;23.00;74.80;;;;;;6245870;22;20007;-73
2023/06/18 06:38:20;;;;;;;15.98;14.45;;;23.00;74.20;;;;;;6273163;22;20000;-73
2023/06/18 06:40:46;;;;;;;18.38;15.65;;;23.10;73.90;;;;;;6246172;22;20007;-73
2023/06/18 06:43:11;;;;;;;16.63;15.02;;;23.20;73.40;;;;;;6273064;22;20006;-73
2023/06/18 06:45:37;;;;;;;17.90;16.00;;;23.30;72.90;;;;;;6272362;22;20000;-74
2023/06/18 06:48:03;;;;;;;17.65;16.05;;;23.30;72.70;;;;;;6272894;22;20414;-72
2023/06/18 06:50:28;;;;;;;18.25;16.35;;;23.50;72.50;;;;;;6273027;22;20030;-71
2023/06/18 06:52:54;;;;;;;17.80;16.17;;;23.60;71.80;;;;;;6273019;22;20006;-71
2023/06/18 06:55:19;;;;;;;21.77;16.98;;;23.70;71.20;;;;;;6246470;22;20004;-71
2023/06/18 06:57:45;;;;;;;16.40;14.93;;;23.80;70.50;;;;;;6245769;22;19991;-71
2023/06/18 07:00:11;;;;;;;17.83;16.00;;;23.80;70.20;;;;;;6244780;22;20016;-71
2023/06/18 07:02:37;;;;;;;14.05;12.75;;;23.90;70.00;;;;;;6272643;22;19996;-71
2023/06/18 07:05:04;;;;;;;17.15;15.48;;;24.00;69.90;;;;;;6272664;22;20199;-72
2023/06/18 07:07:30;;;;;;;19.40;16.20;;;24.00;69.60;;;;;;6245057;22;20082;-74
2023/06/18 07:09:55;;;;;;;16.60;14.85;;;24.10;69.40;;;;;;6271611;22;20338;-72
2023/06/18 07:12:21;;;;;;;17.75;15.25;;;24.20;69.00;;;;;;6272442;22;20010;-71
2023/06/18 07:14:46;;;;;;;16.48;14.90;;;24.30;68.60;;;;;;6271972;22;20007;-73
2023/06/18 07:17:12;;;;;;;16.50;14.82;;;24.30;69.00;;;;;;6271466;22;20053;-75
2023/06/18 07:19:37;;;;;;;17.90;16.15;;;24.40;68.60;;;;;;6272120;22;20038;-72
2023/06/18 07:22:03;;;;;;;15.68;14.15;;;24.60;67.90;;;;;;6272279;22;20008;-73
2023/06/18 07:24:29;;;;;;;16.00;14.43;;;24.70;67.80;;;;;;6272059;22;20049;-75
2023/06/18 07:26:55;;;;;;;16.02;14.32;;;24.90;68.00;;;;;;6272657;22;20015;-75
2023/06/18 07:29:21;;;;;;;15.15;13.65;;;25.00;67.70;;;;;;6244706;22;20444;-73
2023/06/18 07:31:46;;;;;;;17.33;15.63;;;25.10;67.50;;;;;;6244475;22;20366;-74
2023/06/18 07:34:12;;;;;;;17.10;15.43;;;25.40;67.40;;;;;;6272003;22;20000;-72
2023/06/18 07:36:37;;;;;;;14.48;13.07;;;25.50;67.60;;;;;;6272035;22;19996;-72
2023/06/18 07:39:03;;;;;;;16.83;15.15;;;25.60;67.20;;;;;;6271860;22;20000;-73
2023/06/18 07:41:29;;;;;;;16.63;14.30;;;25.70;66.80;;;;;;6271983;22;20014;-73
2023/06/18 07:43:54;;;;;;;14.48;12.77;;;25.70;66.80;;;;;;6271386;22;20023;-72
2023/06/18 07:46:20;;;;;;;14.63;13.23;;;25.80;67.00;;;;;;6272472;22;20000;-72
2023/06/18 07:48:45;;;;;;;15.27;13.73;;;25.80;66.70;;;;;;6272205;22;20000;-75
2023/06/18 07:51:11;;;;;;;15.77;12.40;;;25.90;66.40;;;;;;6271684;22;20067;-75
2023/06/18 07:53:39;;;;;;;16.42;12.18;;;26.00;66.00;;;;;;6271676;22;20011;-73
2023/06/18 07:56:05;;;;;;;14.95;13.55;;;26.00;65.90;;;;;;6271378;22;20007;-73
2023/06/18 07:58:31;;;;;;;15.05;13.57;;;26.20;65.60;;;;;;6271641;22;20000;-73
2023/06/18 08:00:56;;;;;;;14.35;12.95;;;26.30;65.90;;;;;;6244189;22;20026;-72
2023/06/18 08:03:22;;;;;;;14.45;12.23;;;26.20;65.90;;;;;;6272051;22;20004;-74
2023/06/18 08:05:48;;;;;;;12.90;11.52;;;26.30;65.90;;;;;;6271573;22;19996;-73
2023/06/18 08:08:14;;;;;;;11.65;10.55;;;26.30;65.60;;;;;;6271127;22;20021;-73
2023/06/18 08:10:39;;;;;;;10.75;9.73;;;26.20;64.90;;;;;;6271325;22;20035;-72
2023/06/18 08:13:05;;;;;;;12.93;11.57;;;26.20;64.80;;;;;;6244020;22;20154;-73
2023/06/18 08:15:31;;;;;;;12.90;10.73;;;26.20;64.50;;;;;;6271706;22;20003;-72
2023/06/18 08:17:56;;;;;;;11.50;10.32;;;26.20;64.30;;;;;;6271715;22;20011;-72
2023/06/18 08:20:22;;;;;;;11.85;10.68;;;26.30;64.10;;;;;;6272134;22;20039;-73
2023/06/18 08:22:48;;;;;;;14.18;12.68;;;26.40;64.30;;;;;;6271763;22;20366;-72
2023/06/18 08:25:13;;;;;;;11.15;10.10;;;26.40;64.10;;;;;;6271110;22;20008;-75
2023/06/18 08:27:40;;;;;;;12.02;10.70;;;26.40;64.10;;;;;;6270689;22;20003;-73
2023/06/18 08:30:06;;;;;;;13.48;12.18;;;26.50;64.20;;;;;;6270663;22;20007;-73
2023/06/18 08:32:32;;;;;;;13.75;12.35;;;26.60;63.40;;;;;;6271248;22;20004;-74
2023/06/18 08:34:57;;;;;;;11.85;10.63;;;26.70;63.30;;;;;;6271049;22;20041;-73
2023/06/18 08:37:23;;;;;;;13.02;11.70;;;26.80;63.30;;;;;;6271541;22;20007;-73
2023/06/18 08:39:49;;;;;;;12.00;10.85;;;26.80;62.90;;;;;;6270561;22;20329;-73
2023/06/18 08:42:20;;;;;;;11.32;10.05;;;26.90;62.70;;;;;;6271348;22;19996;-75
2023/06/18 08:44:47;;;;;;;15.43;11.18;;;27.00;62.20;;;;;;6244623;22;19999;-73
2023/06/18 08:47:12;;;;;;;12.40;11.15;;;27.10;62.00;;;;;;6244837;22;20498;-72
2023/06/18 08:49:41;;;;;;;13.02;11.73;;;27.20;61.80;;;;;;6272304;22;20145;-72
2023/06/18 08:52:10;;;;;;;13.15;11.77;;;27.40;61.70;;;;;;6271880;22;20016;-73
2023/06/18 08:54:38;;;;;;;12.40;11.00;;;27.50;60.90;;;;;;6271602;22;20011;-73
2023/06/18 08:57:13;;;;;;;13.32;10.50;;;27.60;61.20;;;;;;6271770;22;20057;-72
2023/06/18 08:59:40;;;;;;;12.88;11.38;;;27.70;61.20;;;;;;6271653;22;20058;-73
2023/06/18 09:02:06;;;;;;;12.95;11.65;;;27.80;59.50;;;;;;6271731;22;20003;-72
2023/06/18 09:04:35;;;;;;;13.02;11.82;;;27.90;57.90;;;;;;6271482;22;19996;-72
2023/06/18 09:07:02;;;;;;;13.45;11.85;;;28.10;57.00;;;;;;6271254;22;20003;-72
2023/06/18 09:09:29;;;;;;;12.23;11.25;;;28.20;56.30;;;;;;6270721;22;20045;-72
2023/06/18 09:11:55;;;;;;;12.68;11.65;;;28.40;56.60;;;;;;6271148;22;20010;-72
2023/06/18 09:14:23;;;;;;;12.13;10.85;;;28.50;55.90;;;;;;6272044;22;20022;-72
2023/06/18 09:16:48;;;;;;;11.98;10.98;;;28.60;55.60;;;;;;6272019;22;19999;-73
2023/06/18 09:19:16;;;;;;;12.98;11.68;;;28.70;55.00;;;;;;6271337;22;20070;-72
2023/06/18 09:21:43;;;;;;;13.38;12.00;;;28.70;53.30;;;;;;6272077;22;20002;-72
2023/06/18 09:24:14;;;;;;;13.02;11.40;;;28.60;53.00;;;;;;6271008;22;20317;-73
2023/06/18 09:26:40;;;;;;;12.27;11.07;;;28.70;53.40;;;;;;6271989;22;20003;-72
2023/06/18 09:29:07;;;;;;;10.75;9.75;;;28.80;53.10;;;;;;6271395;22;20442;-72
2023/06/18 09:31:33;;;;;;;12.57;11.38;;;28.90;53.10;;;;;;6271771;22;20447;-70
2023/06/18 09:34:15;;;;;;;11.55;10.50;;;29.00;52.90;;;;;;6271548;22;20000;-69
2023/06/18 09:36:41;;;;;;;12.68;11.32;;;29.10;52.40;;;;;;6271719;22;20008;-77
2023/06/18 09:39:20;;;;;;;11.30;10.35;;;29.10;52.90;;;;;;6270542;22;20087;-75
2023/06/18 09:41:47;;;;;;;10.50;9.57;;;29.10;52.70;;;;;;6273648;22;20132;-76
2023/06/18 09:44:14;;;;;;;12.82;10.10;;;29.10;53.40;;;;;;6246117;22;20329;-76
2023/06/18 09:46:48;;;;;;;10.35;9.55;;;29.00;53.20;;;;;;6273256;22;19996;-75
2023/06/18 09:49:16;;;;;;;10.18;9.27;;;29.20;53.20;;;;;;6273197;22;20433;-76
2023/06/18 09:51:42;;;;;;;11.65;9.52;;;29.30;52.80;;;;;;6273479;22;19999;-80
2023/06/18 09:54:08;;;;;;;10.82;9.10;;;29.30;51.80;;;;;;6245484;22;20014;-77
2023/06/18 09:56:34;;;;;;;9.63;8.68;;;29.40;51.40;;;;;;6273624;22;20071;-76
2023/06/18 09:59:04;;;;;;;9.93;8.98;;;29.40;51.40;;;;;;6245962;22;20006;-78
2023/06/18 10:01:45;;;;;;;9.15;8.25;;;29.40;51.80;;;;;;6273470;22;20011;-77
2023/06/18 10:04:11;;;;;;;8.32;7.60;;;29.50;51.10;;;;;;6272936;22;20413;-77
2023/06/18 10:06:39;;;;;;;9.63;8.60;;;29.50;51.70;;;;;;6273237;22;20006;-78
2023/06/18 10:09:07;;;;;;;9.88;8.65;;;29.60;51.40;;;;;;6246158;22;20003;-77
2023/06/18 10:11:36;;;;;;;9.77;8.85;;;29.70;50.80;;;;;;6273476;22;20053;-78
2023/06/18 10:14:10;;;;;;;9.43;8.70;;;29.70;51.50;;;;;;6273060;22;20008;-77
2023/06/18 10:16:39;;;;;;;9.60;8.65;;;29.80;51.60;;;;;;6245919;22;20008;-76
2023/06/18 10:19:13;;;;;;;10.13;8.18;;;29.80;51.40;;;;;;6273798;22;20007;-75
2023/06/18 10:21:49;;;;;;;7.90;7.30;;;29.90;51.40;;;;;;6246565;22;20023;-76
2023/06/18 10:24:22;;;;;;;9.02;8.10;;;29.90;51.50;;;;;;6273545;22;20021;-76
2023/06/18 10:26:48;;;;;;;6.68;6.10;;;30.00;50.70;;;;;;6273636;22;20419;-75
2023/06/18 10:29:15;;;;;;;7.53;6.82;;;30.00;50.90;;;;;;6272761;22;20058;-76
2023/06/18 10:31:41;;;;;;;8.02;6.90;;;30.00;51.10;;;;;;6272919;22;20004;-76
2023/06/18 10:34:08;;;;;;;8.38;6.78;;;30.00;51.00;;;;;;6272987;22;20004;-76
2023/06/18 10:36:34;;;;;;;7.63;6.38;;;30.00;50.40;;;;;;6274635;22;20428;-75
2023/06/18 10:39:01;;;;;;;10.82;7.25;;;30.00;50.70;;;;;;6273589;22;20000;-73
2023/06/18 10:41:27;;;;;;;8.50;7.75;;;30.00;50.50;;;;;;6273284;22;20382;-74
2023/06/18 10:43:54;;;;;;;9.30;6.45;;;30.00;50.40;;;;;;6273133;22;20024;-73
2023/06/18 10:46:21;;;;;;;9.38;7.40;;;30.00;50.70;;;;;;6273370;22;19996;-73
2023/06/18 10:49:19;;;;;;;8.27;7.53;;;29.90;50.80;;;;;;6273419;22;19999;-74
2023/06/18 10:52:12;;;;;;;8.27;7.43;;;29.90;50.60;;;;;;6271237;22;20004;-74
2023/06/18 10:54:38;;;;;;;9.23;8.30;;;29.80;51.00;;;;;;6271548;22;20441;-74
2023/06/18 10:57:04;;;;;;;8.30;7.60;;;29.80;51.10;;;;;;6271237;22;20004;-74
2023/06/18 10:59:46;;;;;;;8.93;8.13;;;29.70;51.80;;;;;;6271558;22;20004;-73
2023/06/18 11:02:13;;;;;;;11.20;9.32;;;29.60;51.60;;;;;;6271443;22;19999;-73
2023/06/18 11:04:39;;;;;;;7.97;7.22;;;29.50;52.00;;;;;;6269897;22;19996;-73
2023/06/18 11:07:18;;;;;;;10.43;9.38;;;29.50;52.10;;;;;;6270982;22;20325;-73
2023/06/18 11:09:50;;;;;;;9.45;7.78;;;29.40;52.60;;;;;;6271525;22;20035;-73
2023/06/18 11:12:23;;;;;;;8.60;7.90;;;29.30;53.70;;;;;;6245264;22;20000;-73
2023/06/18 11:15:15;;;;;;;9.15;7.93;;;29.30;53.90;;;;;;6245647;22;20057;-73
2023/06/18 11:17:48;;;;;;;7.70;7.00;;;29.20;54.50;;;;;;6272590;22;20034;-71
2023/06/18 11:20:14;;;;;;;10.02;7.60;;;29.10;54.50;;;;;;6271745;22;20018;-73
2023/06/18 11:22:41;;;;;;;9.15;6.93;;;29.00;55.10;;;;;;6272597;22;20449;-74
2023/06/18 11:25:09;;;;;;;15.38;8.32;;;28.90;55.20;;;;;;6244695;22;20433;-73
2023/06/18 11:27:38;;;;;;;7.72;7.13;;;28.80;55.40;;;;;;6272425;22;20011;-74
2023/06/18 11:30:04;;;;;;;8.60;7.38;;;28.80;56.20;;;;;;6272777;22;20121;-74
2023/06/18 11:32:29;;;;;;;8.10;7.30;;;28.70;56.40;;;;;;6272929;22;19999;-74
2023/06/18 11:34:55;;;;;;;8.77;7.68;;;28.70;56.00;;;;;;6271781;22;20004;-74
2023/06/18 11:37:24;;;;;;;8.48;7.28;;;28.60;56.00;;;;;;6273275;22;20011;-74
2023/06/18 11:39:50;;;;;;;7.97;7.15;;;28.50;56.10;;;;;;6272455;22;20057;-74
2023/06/18 11:42:19;;;;;;;8.82;7.97;;;28.50;56.10;;;;;;6272453;22;20000;-74
2023/06/18 11:44:49;;;;;;;8.07;7.28;;;28.50;56.10;;;;;;6272462;22;19995;-74
2023/06/18 11:47:15;;;;;;;8.30;7.53;;;28.40;57.30;;;;;;6271729;22;20085;-73
2023/06/18 11:49:51;;;;;;;11.82;7.82;;;28.40;58.00;;;;;;6243868;22;20391;-72
2023/06/18 11:52:21;;;;;;;10.57;7.85;;;28.40;58.30;;;;;;6271170;22;20004;-73
2023/06/18 11:54:48;;;;;;;11.40;8.15;;;28.40;58.80;;;;;;6271916;22;20082;-74
2023/06/18 11:57:18;;;;;;;8.70;7.72;;;28.50;58.90;;;;;;6271519;22;20057;-73
2023/06/18 11:59:46;;;;;;;8.23;7.53;;;28.60;58.60;;;;;;6271659;22;20487;-72
2023/06/18 12:02:14;;;;;;;8.68;7.78;;;28.60;58.60;;;;;;6271141;22;20003;-73
2023/06/18 12:04:45;;;;;;;8.45;7.15;;;28.70;58.90;;;;;;6271024;22;20003;-73
2023/06/18 12:07:21;;;;;;;9.55;8.63;;;28.80;58.60;;;;;;6271524;22;20400;-73
2023/06/18 12:09:49;;;;;;;9.25;8.40;;;28.80;57.90;;;;;;6271811;22;20058;-73
2023/06/18 12:12:50;;;;;;;9.05;8.15;;;28.90;57.90;;;;;;6244080;22;20078;-72
2023/06/18 12:15:28;;;;;;;8.85;8.05;;;29.00;57.30;;;;;;6147778;23;20391;-73
2023/06/18 12:17:53;;;;;;;10.35;8.35;;;29.10;56.80;;;;;;6147575;23;20289;-74
2023/06/18 12:20:21;;;;;;;9.35;8.50;;;29.20;56.20;;;;;;6148226;23;20016;-74
2023/06/18 12:22:47;;;;;;;10.15;7.85;;;29.30;56.30;;;;;;6147965;23;20228;-73
2023/06/18 12:25:13;;;;;;;8.77;7.97;;;29.30;56.00;;;;;;6147846;23;20181;-73
2023/06/18 12:27:42;;;;;;;8.57;7.72;;;29.20;55.60;;;;;;6148010;23;20145;-75
2023/06/18 12:30:09;;;;;;;9.98;8.43;;;29.10;55.90;;;;;;6147964;23;20005;-74
2023/06/18 12:32:36;;;;;;;9.07;8.27;;;29.00;56.10;;;;;;6147520;23;20462;-74
2023/06/18 12:35:28;;;;;;;10.20;8.80;;;28.90;55.90;;;;;;6147566;23;20056;-74
2023/06/18 12:37:59;;;;;;;9.90;9.00;;;29.00;56.60;;;;;;6147312;23;20009;-75